Aviation Digital Data Service (ADDS)

Output produced by METARs form (1254 UTC 21 February 2018)
found at http://www.aviationweather.gov/adds/metars/
 
VLVT 211230Z 34004KT 4000 BR BKN040 22/21 Q1008 NOSIG
VLVT 211230Z 34004KT 4000 BR BKN040 22/21 Q1008 NOSIG